sensor_id;sensor_type;location;lat;lon;timestamp;temperature;humidity
42907;DHT22;28552;51.146;6.576;2023-12-28T00:00:53;9.90;99.90
42907;DHT22;28552;51.146;6.576;2023-12-28T00:03:53;9.90;99.90
42907;DHT22;28552;51.146;6.576;2023-12-28T00:06:54;9.90;99.90
42907;DHT22;28552;51.146;6.576;2023-12-28T00:09:54;9.80;99.90
42907;DHT22;28552;51.146;6.576;2023-12-28T00:12:55;9.80;99.90
42907;DHT22;28552;51.146;6.576;2023-12-28T00:15:55;9.80;99.90
42907;DHT22;28552;51.146;6.576;2023-12-28T00:18:56;9.70;99.90
42907;DHT22;28552;51.146;6.576;2023-12-28T00:21:56;9.70;99.90
42907;DHT22;28552;51.146;6.576;2023-12-28T00:24:57;9.60;99.90
42907;DHT22;28552;51.146;6.576;2023-12-28T00:27:57;9.60;99.90
42907;DHT22;28552;51.146;6.576;2023-12-28T00:30:58;9.60;99.90
42907;DHT22;28552;51.146;6.576;2023-12-28T00:33:58;9.60;99.90
42907;DHT22;28552;51.146;6.576;2023-12-28T00:36:59;9.50;99.90
42907;DHT22;28552;51.146;6.576;2023-12-28T00:39:59;9.50;99.90
42907;DHT22;28552;51.146;6.576;2023-12-28T00:43:00;9.50;99.90
42907;DHT22;28552;51.146;6.576;2023-12-28T00:46:00;9.50;99.90
42907;DHT22;28552;51.146;6.576;2023-12-28T00:49:01;9.50;99.90
42907;DHT22;28552;51.146;6.576;2023-12-28T00:52:01;9.50;99.90
42907;DHT22;28552;51.146;6.576;2023-12-28T00:55:02;9.50;99.90
42907;DHT22;28552;51.146;6.576;2023-12-28T00:58:03;9.50;99.90
42907;DHT22;28552;51.146;6.576;2023-12-28T01:01:04;9.50;99.90
42907;DHT22;28552;51.146;6.576;2023-12-28T01:04:04;9.50;99.90
42907;DHT22;28552;51.146;6.576;2023-12-28T01:07:05;9.50;99.90
42907;DHT22;28552;51.146;6.576;2023-12-28T01:10:07;9.50;99.90
42907;DHT22;28552;51.146;6.576;2023-12-28T01:13:07;9.50;99.90
42907;DHT22;28552;51.146;6.576;2023-12-28T01:16:08;9.50;99.90
42907;DHT22;28552;51.146;6.576;2023-12-28T01:19:08;9.50;99.90
42907;DHT22;28552;51.146;6.576;2023-12-28T01:22:09;9.50;99.90
42907;DHT22;28552;51.146;6.576;2023-12-28T01:25:09;9.50;99.90
42907;DHT22;28552;51.146;6.576;2023-12-28T01:28:10;9.50;99.90
42907;DHT22;28552;51.146;6.576;2023-12-28T01:31:10;9.50;99.90
42907;DHT22;28552;51.146;6.576;2023-12-28T01:34:11;9.50;99.90
42907;DHT22;28552;51.146;6.576;2023-12-28T01:37:13;9.40;99.90
42907;DHT22;28552;51.146;6.576;2023-12-28T01:40:15;9.40;99.90
42907;DHT22;28552;51.146;6.576;2023-12-28T01:43:16;9.40;99.90
42907;DHT22;28552;51.146;6.576;2023-12-28T01:46:18;9.40;99.90
42907;DHT22;28552;51.146;6.576;2023-12-28T01:49:19;9.50;99.90
42907;DHT22;28552;51.146;6.576;2023-12-28T01:52:20;9.50;99.90
42907;DHT22;28552;51.146;6.576;2023-12-28T01:55:21;9.50;99.90
42907;DHT22;28552;51.146;6.576;2023-12-28T01:58:22;9.50;99.90
42907;DHT22;28552;51.146;6.576;2023-12-28T02:01:23;9.50;99.90
42907;DHT22;28552;51.146;6.576;2023-12-28T02:04:26;9.50;99.90
42907;DHT22;28552;51.146;6.576;2023-12-28T02:07:29;9.40;99.90
42907;DHT22;28552;51.146;6.576;2023-12-28T02:10:30;9.50;99.90
42907;DHT22;28552;51.146;6.576;2023-12-28T02:13:30;9.50;99.90
42907;DHT22;28552;51.146;6.576;2023-12-28T02:16:34;9.50;99.90
42907;DHT22;28552;51.146;6.576;2023-12-28T02:19:46;9.50;99.90
42907;DHT22;28552;51.146;6.576;2023-12-28T02:22:49;9.60;99.90
42907;DHT22;28552;51.146;6.576;2023-12-28T02:25:50;9.50;99.90
42907;DHT22;28552;51.146;6.576;2023-12-28T02:28:50;9.60;99.90
42907;DHT22;28552;51.146;6.576;2023-12-28T02:32:00;9.60;99.90
42907;DHT22;28552;51.146;6.576;2023-12-28T02:35:10;9.60;99.90
42907;DHT22;28552;51.146;6.576;2023-12-28T02:38:14;9.60;99.90
42907;DHT22;28552;51.146;6.576;2023-12-28T02:41:15;9.60;99.90
42907;DHT22;28552;51.146;6.576;2023-12-28T02:44:17;9.60;99.90
42907;DHT22;28552;51.146;6.576;2023-12-28T02:47:18;9.60;99.90
42907;DHT22;28552;51.146;6.576;2023-12-28T02:50:18;9.60;99.90
42907;DHT22;28552;51.146;6.576;2023-12-28T02:53:19;9.60;99.90
42907;DHT22;28552;51.146;6.576;2023-12-28T02:56:19;9.60;99.90
42907;DHT22;28552;51.146;6.576;2023-12-28T02:59:20;9.70;99.90
42907;DHT22;28552;51.146;6.576;2023-12-28T03:02:20;9.60;99.90
42907;DHT22;28552;51.146;6.576;2023-12-28T03:05:21;9.60;99.90
42907;DHT22;28552;51.146;6.576;2023-12-28T03:08:21;9.60;99.90
42907;DHT22;28552;51.146;6.576;2023-12-28T03:11:23;9.60;99.90
42907;DHT22;28552;51.146;6.576;2023-12-28T03:14:23;9.60;99.90
42907;DHT22;28552;51.146;6.576;2023-12-28T03:17:24;9.60;99.90
42907;DHT22;28552;51.146;6.576;2023-12-28T03:20:25;9.60;99.90
42907;DHT22;28552;51.146;6.576;2023-12-28T03:23:25;9.70;99.90
42907;DHT22;28552;51.146;6.576;2023-12-28T03:26:26;9.60;99.90
42907;DHT22;28552;51.146;6.576;2023-12-28T03:29:27;9.60;99.90
42907;DHT22;28552;51.146;6.576;2023-12-28T03:32:28;9.60;99.90
42907;DHT22;28552;51.146;6.576;2023-12-28T03:35:28;9.60;99.90
42907;DHT22;28552;51.146;6.576;2023-12-28T03:38:29;9.50;99.90
42907;DHT22;28552;51.146;6.576;2023-12-28T03:41:29;9.50;99.90
42907;DHT22;28552;51.146;6.576;2023-12-28T03:44:30;9.40;99.90
42907;DHT22;28552;51.146;6.576;2023-12-28T03:47:30;9.30;99.90
42907;DHT22;28552;51.146;6.576;2023-12-28T03:50:31;9.30;99.90
42907;DHT22;28552;51.146;6.576;2023-12-28T03:53:32;9.30;99.90
42907;DHT22;28552;51.146;6.576;2023-12-28T03:56:32;9.30;99.90
42907;DHT22;28552;51.146;6.576;2023-12-28T03:59:36;9.30;99.90
42907;DHT22;28552;51.146;6.576;2023-12-28T04:02:36;9.20;99.90
42907;DHT22;28552;51.146;6.576;2023-12-28T04:05:36;9.20;99.90
42907;DHT22;28552;51.146;6.576;2023-12-28T04:08:37;9.20;99.90
42907;DHT22;28552;51.146;6.576;2023-12-28T04:11:38;9.20;99.90
42907;DHT22;28552;51.146;6.576;2023-12-28T04:14:38;9.20;99.90
42907;DHT22;28552;51.146;6.576;2023-12-28T04:17:39;9.20;99.90
42907;DHT22;28552;51.146;6.576;2023-12-28T04:20:42;9.10;99.90
42907;DHT22;28552;51.146;6.576;2023-12-28T04:23:43;9.20;99.90
42907;DHT22;28552;51.146;6.576;2023-12-28T04:26:43;9.20;99.90
42907;DHT22;28552;51.146;6.576;2023-12-28T04:29:44;9.20;99.90
42907;DHT22;28552;51.146;6.576;2023-12-28T04:32:44;9.20;99.90
42907;DHT22;28552;51.146;6.576;2023-12-28T04:35:45;9.20;99.90
42907;DHT22;28552;51.146;6.576;2023-12-28T04:38:46;9.30;99.90
42907;DHT22;28552;51.146;6.576;2023-12-28T04:41:46;9.30;99.90
42907;DHT22;28552;51.146;6.576;2023-12-28T04:44:47;9.30;99.90
42907;DHT22;28552;51.146;6.576;2023-12-28T04:47:47;9.20;99.90
42907;DHT22;28552;51.146;6.576;2023-12-28T04:50:48;9.20;99.90
42907;DHT22;28552;51.146;6.576;2023-12-28T04:53:48;9.20;99.90
42907;DHT22;28552;51.146;6.576;2023-12-28T04:56:49;9.20;99.90
42907;DHT22;28552;51.146;6.576;2023-12-28T04:59:50;9.30;99.90
42907;DHT22;28552;51.146;6.576;2023-12-28T05:02:50;9.40;99.90
42907;DHT22;28552;51.146;6.576;2023-12-28T05:05:51;9.40;99.90
42907;DHT22;28552;51.146;6.576;2023-12-28T05:08:51;9.50;99.90
42907;DHT22;28552;51.146;6.576;2023-12-28T05:11:52;9.50;99.90
42907;DHT22;28552;51.146;6.576;2023-12-28T05:14:52;9.60;99.90
42907;DHT22;28552;51.146;6.576;2023-12-28T05:17:53;9.60;99.90
42907;DHT22;28552;51.146;6.576;2023-12-28T05:20:53;9.70;99.90
42907;DHT22;28552;51.146;6.576;2023-12-28T05:23:54;9.70;99.90
42907;DHT22;28552;51.146;6.576;2023-12-28T05:26:54;9.80;99.90
42907;DHT22;28552;51.146;6.576;2023-12-28T05:29:55;9.80;99.90
42907;DHT22;28552;51.146;6.576;2023-12-28T05:32:55;9.80;99.90
42907;DHT22;28552;51.146;6.576;2023-12-28T05:35:56;9.80;99.90
42907;DHT22;28552;51.146;6.576;2023-12-28T05:38:56;9.80;99.90
42907;DHT22;28552;51.146;6.576;2023-12-28T05:41:57;9.80;99.90
42907;DHT22;28552;51.146;6.576;2023-12-28T05:44:57;9.90;99.90
42907;DHT22;28552;51.146;6.576;2023-12-28T05:47:58;9.90;99.90
42907;DHT22;28552;51.146;6.576;2023-12-28T05:50:58;9.90;99.90
42907;DHT22;28552;51.146;6.576;2023-12-28T05:53:59;9.90;99.90
42907;DHT22;28552;51.146;6.576;2023-12-28T05:57:00;9.90;99.90
42907;DHT22;28552;51.146;6.576;2023-12-28T06:00:00;9.90;99.90
42907;DHT22;28552;51.146;6.576;2023-12-28T06:03:02;9.90;99.90
42907;DHT22;28552;51.146;6.576;2023-12-28T06:06:03;10.00;99.90
42907;DHT22;28552;51.146;6.576;2023-12-28T06:09:03;10.00;99.90
42907;DHT22;28552;51.146;6.576;2023-12-28T06:12:05;10.00;99.90
42907;DHT22;28552;51.146;6.576;2023-12-28T06:15:06;10.00;99.90
42907;DHT22;28552;51.146;6.576;2023-12-28T06:18:07;10.00;99.90
42907;DHT22;28552;51.146;6.576;2023-12-28T06:21:08;10.00;99.90
42907;DHT22;28552;51.146;6.576;2023-12-28T06:24:08;10.00;99.90
42907;DHT22;28552;51.146;6.576;2023-12-28T06:27:09;10.00;99.90
42907;DHT22;28552;51.146;6.576;2023-12-28T06:30:10;10.00;99.90
42907;DHT22;28552;51.146;6.576;2023-12-28T06:33:10;10.10;99.90
42907;DHT22;28552;51.146;6.576;2023-12-28T06:36:12;10.10;99.90
42907;DHT22;28552;51.146;6.576;2023-12-28T06:39:12;10.10;99.90
42907;DHT22;28552;51.146;6.576;2023-12-28T06:42:14;10.10;99.90
42907;DHT22;28552;51.146;6.576;2023-12-28T06:45:14;10.10;99.90
42907;DHT22;28552;51.146;6.576;2023-12-28T06:48:15;10.10;99.90
42907;DHT22;28552;51.146;6.576;2023-12-28T06:51:17;10.10;99.90
42907;DHT22;28552;51.146;6.576;2023-12-28T06:54:18;10.10;99.90
42907;DHT22;28552;51.146;6.576;2023-12-28T06:57:19;10.10;99.90
42907;DHT22;28552;51.146;6.576;2023-12-28T07:00:19;10.10;99.90
42907;DHT22;28552;51.146;6.576;2023-12-28T07:03:20;10.10;99.90
42907;DHT22;28552;51.146;6.576;2023-12-28T07:06:20;10.10;99.90
42907;DHT22;28552;51.146;6.576;2023-12-28T07:09:21;10.10;99.90
42907;DHT22;28552;51.146;6.576;2023-12-28T07:12:21;10.10;99.90
42907;DHT22;28552;51.146;6.576;2023-12-28T07:15:24;10.00;99.90
42907;DHT22;28552;51.146;6.576;2023-12-28T07:18:25;10.00;99.90
42907;DHT22;28552;51.146;6.576;2023-12-28T07:21:25;10.00;99.90
42907;DHT22;28552;51.146;6.576;2023-12-28T07:24:26;10.00;99.90
42907;DHT22;28552;51.146;6.576;2023-12-28T07:27:27;10.00;99.90
42907;DHT22;28552;51.146;6.576;2023-12-28T07:30:27;10.00;99.90
42907;DHT22;28552;51.146;6.576;2023-12-28T07:33:28;10.00;99.90
42907;DHT22;28552;51.146;6.576;2023-12-28T07:36:28;10.00;99.90
42907;DHT22;28552;51.146;6.576;2023-12-28T07:39:29;10.00;99.90
42907;DHT22;28552;51.146;6.576;2023-12-28T07:42:30;10.00;99.90
42907;DHT22;28552;51.146;6.576;2023-12-28T07:45:31;10.00;99.90
42907;DHT22;28552;51.146;6.576;2023-12-28T07:48:32;10.00;99.90
42907;DHT22;28552;51.146;6.576;2023-12-28T07:51:33;10.00;99.90
42907;DHT22;28552;51.146;6.576;2023-12-28T07:54:33;10.00;99.90
42907;DHT22;28552;51.146;6.576;2023-12-28T07:57:34;9.90;99.90
42907;DHT22;28552;51.146;6.576;2023-12-28T08:00:35;9.90;99.90
42907;DHT22;28552;51.146;6.576;2023-12-28T08:03:36;9.90;99.90
42907;DHT22;28552;51.146;6.576;2023-12-28T08:06:36;9.90;99.90
42907;DHT22;28552;51.146;6.576;2023-12-28T08:09:37;10.00;99.90
42907;DHT22;28552;51.146;6.576;2023-12-28T08:12:37;10.00;99.90
42907;DHT22;28552;51.146;6.576;2023-12-28T08:15:38;10.00;99.90
42907;DHT22;28552;51.146;6.576;2023-12-28T08:18:39;10.00;99.90
42907;DHT22;28552;51.146;6.576;2023-12-28T08:21:39;10.00;99.90
42907;DHT22;28552;51.146;6.576;2023-12-28T08:24:40;10.00;99.90
42907;DHT22;28552;51.146;6.576;2023-12-28T08:27:40;9.90;99.90
42907;DHT22;28552;51.146;6.576;2023-12-28T08:30:42;9.90;99.90
42907;DHT22;28552;51.146;6.576;2023-12-28T08:33:42;9.80;99.90
42907;DHT22;28552;51.146;6.576;2023-12-28T08:36:43;9.80;99.90
42907;DHT22;28552;51.146;6.576;2023-12-28T08:39:43;9.70;99.90
42907;DHT22;28552;51.146;6.576;2023-12-28T08:42:44;9.60;99.90
42907;DHT22;28552;51.146;6.576;2023-12-28T08:45:45;9.60;99.90
42907;DHT22;28552;51.146;6.576;2023-12-28T08:48:46;9.60;99.90
42907;DHT22;28552;51.146;6.576;2023-12-28T08:51:46;9.70;99.90
42907;DHT22;28552;51.146;6.576;2023-12-28T08:54:47;9.70;99.90
42907;DHT22;28552;51.146;6.576;2023-12-28T08:57:47;9.80;99.90
42907;DHT22;28552;51.146;6.576;2023-12-28T09:00:48;9.80;99.90
42907;DHT22;28552;51.146;6.576;2023-12-28T09:03:49;9.90;99.90
42907;DHT22;28552;51.146;6.576;2023-12-28T09:06:50;10.10;99.90
42907;DHT22;28552;51.146;6.576;2023-12-28T09:09:51;10.20;99.90
42907;DHT22;28552;51.146;6.576;2023-12-28T09:12:51;10.30;99.90
42907;DHT22;28552;51.146;6.576;2023-12-28T09:15:52;10.30;99.90
42907;DHT22;28552;51.146;6.576;2023-12-28T09:18:52;10.40;99.90
42907;DHT22;28552;51.146;6.576;2023-12-28T09:21:53;10.50;99.90
42907;DHT22;28552;51.146;6.576;2023-12-28T09:24:54;10.50;99.90
42907;DHT22;28552;51.146;6.576;2023-12-28T09:27:54;10.60;99.90
42907;DHT22;28552;51.146;6.576;2023-12-28T09:30:55;10.60;99.90
42907;DHT22;28552;51.146;6.576;2023-12-28T09:33:55;10.60;99.90
42907;DHT22;28552;51.146;6.576;2023-12-28T09:36:56;10.70;99.90
42907;DHT22;28552;51.146;6.576;2023-12-28T09:39:56;10.70;99.90
42907;DHT22;28552;51.146;6.576;2023-12-28T09:43:09;10.80;99.90
42907;DHT22;28552;51.146;6.576;2023-12-28T09:46:14;10.80;99.90
42907;DHT22;28552;51.146;6.576;2023-12-28T09:49:15;10.70;99.90
42907;DHT22;28552;51.146;6.576;2023-12-28T09:52:16;10.70;99.90
42907;DHT22;28552;51.146;6.576;2023-12-28T09:55:17;10.60;99.90
42907;DHT22;28552;51.146;6.576;2023-12-28T09:58:19;10.60;99.90
42907;DHT22;28552;51.146;6.576;2023-12-28T10:01:20;10.50;99.90
42907;DHT22;28552;51.146;6.576;2023-12-28T10:04:21;10.50;99.90
42907;DHT22;28552;51.146;6.576;2023-12-28T10:07:21;10.50;99.90
42907;DHT22;28552;51.146;6.576;2023-12-28T10:10:22;10.60;99.90
42907;DHT22;28552;51.146;6.576;2023-12-28T10:13:25;10.60;99.90
42907;DHT22;28552;51.146;6.576;2023-12-28T10:16:26;10.60;99.90
42907;DHT22;28552;51.146;6.576;2023-12-28T10:19:26;10.60;99.90
42907;DHT22;28552;51.146;6.576;2023-12-28T10:22:26;10.60;99.90
42907;DHT22;28552;51.146;6.576;2023-12-28T10:25:31;10.60;99.90
42907;DHT22;28552;51.146;6.576;2023-12-28T10:28:32;10.70;99.90
42907;DHT22;28552;51.146;6.576;2023-12-28T10:31:34;10.80;99.90
42907;DHT22;28552;51.146;6.576;2023-12-28T10:34:35;10.90;99.90
42907;DHT22;28552;51.146;6.576;2023-12-28T10:37:35;11.10;99.90
42907;DHT22;28552;51.146;6.576;2023-12-28T10:40:38;11.20;99.90
42907;DHT22;28552;51.146;6.576;2023-12-28T10:43:46;11.20;99.90
42907;DHT22;28552;51.146;6.576;2023-12-28T10:46:47;11.20;99.90
42907;DHT22;28552;51.146;6.576;2023-12-28T10:49:53;11.30;99.90
42907;DHT22;28552;51.146;6.576;2023-12-28T10:53:01;11.30;99.90
42907;DHT22;28552;51.146;6.576;2023-12-28T10:56:25;11.30;99.90
42907;DHT22;28552;51.146;6.576;2023-12-28T10:59:47;11.30;99.90
42907;DHT22;28552;51.146;6.576;2023-12-28T11:02:53;11.40;99.90
42907;DHT22;28552;51.146;6.576;2023-12-28T11:05:58;11.40;99.90
42907;DHT22;28552;51.146;6.576;2023-12-28T11:08:59;11.50;99.90
42907;DHT22;28552;51.146;6.576;2023-12-28T11:12:02;11.50;99.90
42907;DHT22;28552;51.146;6.576;2023-12-28T11:15:05;11.50;99.90
42907;DHT22;28552;51.146;6.576;2023-12-28T11:18:06;11.40;99.90
42907;DHT22;28552;51.146;6.576;2023-12-28T11:21:07;11.40;99.90
42907;DHT22;28552;51.146;6.576;2023-12-28T11:24:08;11.30;99.90
42907;DHT22;28552;51.146;6.576;2023-12-28T11:27:08;11.30;99.90
42907;DHT22;28552;51.146;6.576;2023-12-28T11:30:10;11.20;99.90
42907;DHT22;28552;51.146;6.576;2023-12-28T11:33:11;11.20;99.90
42907;DHT22;28552;51.146;6.576;2023-12-28T11:36:19;11.20;99.90
42907;DHT22;28552;51.146;6.576;2023-12-28T11:42:33;11.40;99.90
42907;DHT22;28552;51.146;6.576;2023-12-28T11:45:34;11.50;99.90
42907;DHT22;28552;51.146;6.576;2023-12-28T11:48:35;11.50;99.90
42907;DHT22;28552;51.146;6.576;2023-12-28T11:51:38;11.60;99.90
42907;DHT22;28552;51.146;6.576;2023-12-28T11:54:48;11.60;99.90
42907;DHT22;28552;51.146;6.576;2023-12-28T11:57:49;11.70;99.90
42907;DHT22;28552;51.146;6.576;2023-12-28T12:00:49;11.80;99.90
42907;DHT22;28552;51.146;6.576;2023-12-28T12:03:50;11.80;99.90
42907;DHT22;28552;51.146;6.576;2023-12-28T12:06:50;11.80;99.90
42907;DHT22;28552;51.146;6.576;2023-12-28T12:09:57;11.80;99.90
42907;DHT22;28552;51.146;6.576;2023-12-28T12:12:58;11.90;99.90
42907;DHT22;28552;51.146;6.576;2023-12-28T12:15:59;11.90;99.90
42907;DHT22;28552;51.146;6.576;2023-12-28T12:19:06;11.90;99.90
42907;DHT22;28552;51.146;6.576;2023-12-28T12:22:08;11.90;99.90
42907;DHT22;28552;51.146;6.576;2023-12-28T12:25:09;11.90;99.90
42907;DHT22;28552;51.146;6.576;2023-12-28T12:28:09;11.90;99.90
42907;DHT22;28552;51.146;6.576;2023-12-28T12:31:11;11.90;99.90
42907;DHT22;28552;51.146;6.576;2023-12-28T12:34:16;11.80;99.90
42907;DHT22;28552;51.146;6.576;2023-12-28T12:37:18;11.90;99.90
42907;DHT22;28552;51.146;6.576;2023-12-28T12:40:18;11.90;99.90
42907;DHT22;28552;51.146;6.576;2023-12-28T12:43:21;11.90;99.90
42907;DHT22;28552;51.146;6.576;2023-12-28T12:46:22;11.90;99.90
42907;DHT22;28552;51.146;6.576;2023-12-28T12:49:23;11.90;99.90
42907;DHT22;28552;51.146;6.576;2023-12-28T12:52:25;11.90;99.90
42907;DHT22;28552;51.146;6.576;2023-12-28T12:55:26;11.90;99.90
42907;DHT22;28552;51.146;6.576;2023-12-28T12:58:27;12.00;99.90
42907;DHT22;28552;51.146;6.576;2023-12-28T13:01:27;12.00;99.90
42907;DHT22;28552;51.146;6.576;2023-12-28T13:04:29;11.90;99.90
42907;DHT22;28552;51.146;6.576;2023-12-28T13:07:30;11.90;99.90
42907;DHT22;28552;51.146;6.576;2023-12-28T13:10:31;11.90;99.90
42907;DHT22;28552;51.146;6.576;2023-12-28T13:13:31;11.90;99.90
42907;DHT22;28552;51.146;6.576;2023-12-28T13:16:32;11.90;99.90
42907;DHT22;28552;51.146;6.576;2023-12-28T13:19:32;11.80;99.90
42907;DHT22;28552;51.146;6.576;2023-12-28T13:22:33;11.80;99.90
42907;DHT22;28552;51.146;6.576;2023-12-28T13:25:34;11.80;99.90
42907;DHT22;28552;51.146;6.576;2023-12-28T13:28:35;11.80;99.90
42907;DHT22;28552;51.146;6.576;2023-12-28T13:31:35;11.80;99.90
42907;DHT22;28552;51.146;6.576;2023-12-28T13:34:36;11.70;99.90
42907;DHT22;28552;51.146;6.576;2023-12-28T13:37:36;11.70;99.90
42907;DHT22;28552;51.146;6.576;2023-12-28T13:40:37;11.70;99.90
42907;DHT22;28552;51.146;6.576;2023-12-28T13:43:37;11.70;99.90
42907;DHT22;28552;51.146;6.576;2023-12-28T13:46:38;11.60;99.90
42907;DHT22;28552;51.146;6.576;2023-12-28T13:49:39;11.60;99.90
42907;DHT22;28552;51.146;6.576;2023-12-28T13:52:40;11.60;99.90
42907;DHT22;28552;51.146;6.576;2023-12-28T13:55:40;11.60;99.90
42907;DHT22;28552;51.146;6.576;2023-12-28T13:58:41;11.60;99.90
42907;DHT22;28552;51.146;6.576;2023-12-28T14:01:42;11.50;99.90
42907;DHT22;28552;51.146;6.576;2023-12-28T14:04:43;11.50;99.90
42907;DHT22;28552;51.146;6.576;2023-12-28T14:07:43;11.50;99.90
42907;DHT22;28552;51.146;6.576;2023-12-28T14:10:44;11.50;99.90
42907;DHT22;28552;51.146;6.576;2023-12-28T14:13:45;11.50;99.90
42907;DHT22;28552;51.146;6.576;2023-12-28T14:16:45;11.50;99.90
42907;DHT22;28552;51.146;6.576;2023-12-28T14:19:46;11.40;99.90
42907;DHT22;28552;51.146;6.576;2023-12-28T14:22:47;11.40;99.90
42907;DHT22;28552;51.146;6.576;2023-12-28T14:25:48;11.40;99.90
42907;DHT22;28552;51.146;6.576;2023-12-28T14:28:53;11.30;99.90
42907;DHT22;28552;51.146;6.576;2023-12-28T14:31:54;11.30;99.90
42907;DHT22;28552;51.146;6.576;2023-12-28T14:34:55;11.20;99.90
42907;DHT22;28552;51.146;6.576;2023-12-28T14:37:55;11.20;99.90
42907;DHT22;28552;51.146;6.576;2023-12-28T14:40:57;11.20;99.90
42907;DHT22;28552;51.146;6.576;2023-12-28T14:43:57;11.20;99.90
42907;DHT22;28552;51.146;6.576;2023-12-28T14:46:58;11.10;99.90
42907;DHT22;28552;51.146;6.576;2023-12-28T14:49:58;11.00;99.90
42907;DHT22;28552;51.146;6.576;2023-12-28T14:52:59;11.00;99.90
42907;DHT22;28552;51.146;6.576;2023-12-28T14:56:00;10.90;99.90
42907;DHT22;28552;51.146;6.576;2023-12-28T14:59:01;10.90;99.90
42907;DHT22;28552;51.146;6.576;2023-12-28T15:02:02;10.80;99.90
42907;DHT22;28552;51.146;6.576;2023-12-28T15:05:03;10.80;99.90
42907;DHT22;28552;51.146;6.576;2023-12-28T15:08:04;10.70;99.90
42907;DHT22;28552;51.146;6.576;2023-12-28T15:11:05;10.70;99.90
42907;DHT22;28552;51.146;6.576;2023-12-28T15:14:08;10.60;99.90
42907;DHT22;28552;51.146;6.576;2023-12-28T15:17:08;10.60;99.90
42907;DHT22;28552;51.146;6.576;2023-12-28T15:20:13;10.50;99.90
42907;DHT22;28552;51.146;6.576;2023-12-28T15:23:15;10.50;99.90
42907;DHT22;28552;51.146;6.576;2023-12-28T15:26:17;10.40;99.90
42907;DHT22;28552;51.146;6.576;2023-12-28T15:29:18;10.30;99.90
42907;DHT22;28552;51.146;6.576;2023-12-28T15:32:18;10.30;99.90
42907;DHT22;28552;51.146;6.576;2023-12-28T15:35:19;10.30;99.90
42907;DHT22;28552;51.146;6.576;2023-12-28T15:38:19;10.30;99.90
42907;DHT22;28552;51.146;6.576;2023-12-28T15:41:20;10.20;99.90
42907;DHT22;28552;51.146;6.576;2023-12-28T15:44:21;10.10;99.90
42907;DHT22;28552;51.146;6.576;2023-12-28T15:47:22;10.00;99.90
42907;DHT22;28552;51.146;6.576;2023-12-28T15:50:22;10.00;99.90
42907;DHT22;28552;51.146;6.576;2023-12-28T15:53:23;9.90;99.90
42907;DHT22;28552;51.146;6.576;2023-12-28T15:56:23;9.90;99.90
42907;DHT22;28552;51.146;6.576;2023-12-28T15:59:24;9.90;99.90
42907;DHT22;28552;51.146;6.576;2023-12-28T16:02:25;9.90;99.90
42907;DHT22;28552;51.146;6.576;2023-12-28T16:05:25;9.90;99.90
42907;DHT22;28552;51.146;6.576;2023-12-28T16:08:26;9.90;99.90
42907;DHT22;28552;51.146;6.576;2023-12-28T16:11:26;9.90;99.90
42907;DHT22;28552;51.146;6.576;2023-12-28T16:14:27;9.90;99.90
42907;DHT22;28552;51.146;6.576;2023-12-28T16:17:28;9.90;99.90
42907;DHT22;28552;51.146;6.576;2023-12-28T16:20:29;9.90;99.90
42907;DHT22;28552;51.146;6.576;2023-12-28T16:23:30;9.90;99.90
42907;DHT22;28552;51.146;6.576;2023-12-28T16:26:30;9.80;99.90
42907;DHT22;28552;51.146;6.576;2023-12-28T16:29:31;9.80;99.90
42907;DHT22;28552;51.146;6.576;2023-12-28T16:32:31;9.80;99.90
42907;DHT22;28552;51.146;6.576;2023-12-28T16:35:32;9.90;99.90
42907;DHT22;28552;51.146;6.576;2023-12-28T16:38:32;9.90;99.90
42907;DHT22;28552;51.146;6.576;2023-12-28T16:41:33;9.90;99.90
42907;DHT22;28552;51.146;6.576;2023-12-28T16:44:33;9.80;99.90
42907;DHT22;28552;51.146;6.576;2023-12-28T16:47:34;9.80;99.90
42907;DHT22;28552;51.146;6.576;2023-12-28T16:50:38;9.80;99.90
42907;DHT22;28552;51.146;6.576;2023-12-28T16:53:39;9.90;99.90
42907;DHT22;28552;51.146;6.576;2023-12-28T16:56:39;9.90;99.90
42907;DHT22;28552;51.146;6.576;2023-12-28T16:59:40;9.90;99.90
42907;DHT22;28552;51.146;6.576;2023-12-28T17:02:40;9.90;99.90
42907;DHT22;28552;51.146;6.576;2023-12-28T17:05:41;9.90;99.90
42907;DHT22;28552;51.146;6.576;2023-12-28T17:08:43;9.90;99.90
42907;DHT22;28552;51.146;6.576;2023-12-28T17:11:45;9.90;99.90
42907;DHT22;28552;51.146;6.576;2023-12-28T17:14:46;9.90;99.90
42907;DHT22;28552;51.146;6.576;2023-12-28T17:17:47;9.90;99.90
42907;DHT22;28552;51.146;6.576;2023-12-28T17:20:47;9.90;99.90
42907;DHT22;28552;51.146;6.576;2023-12-28T17:23:48;9.90;99.90
42907;DHT22;28552;51.146;6.576;2023-12-28T17:26:51;9.90;99.90
42907;DHT22;28552;51.146;6.576;2023-12-28T17:30:00;9.90;99.90
42907;DHT22;28552;51.146;6.576;2023-12-28T17:33:05;9.90;99.90
42907;DHT22;28552;51.146;6.576;2023-12-28T17:36:06;9.80;99.90
42907;DHT22;28552;51.146;6.576;2023-12-28T17:39:07;9.80;99.90
42907;DHT22;28552;51.146;6.576;2023-12-28T17:42:08;9.80;99.90
42907;DHT22;28552;51.146;6.576;2023-12-28T17:45:13;9.70;99.90
42907;DHT22;28552;51.146;6.576;2023-12-28T17:48:20;9.70;99.90
42907;DHT22;28552;51.146;6.576;2023-12-28T17:51:26;9.70;99.90
42907;DHT22;28552;51.146;6.576;2023-12-28T17:54:28;9.60;99.90
42907;DHT22;28552;51.146;6.576;2023-12-28T17:57:30;9.70;99.90
42907;DHT22;28552;51.146;6.576;2023-12-28T18:00:30;9.70;99.90
42907;DHT22;28552;51.146;6.576;2023-12-28T18:03:31;9.70;99.90
42907;DHT22;28552;51.146;6.576;2023-12-28T18:06:31;9.80;99.90
42907;DHT22;28552;51.146;6.576;2023-12-28T18:09:32;9.70;99.90
42907;DHT22;28552;51.146;6.576;2023-12-28T18:12:36;9.70;99.90
42907;DHT22;28552;51.146;6.576;2023-12-28T18:15:37;9.70;99.90
42907;DHT22;28552;51.146;6.576;2023-12-28T18:18:37;9.70;99.90
42907;DHT22;28552;51.146;6.576;2023-12-28T18:21:38;9.60;99.90
42907;DHT22;28552;51.146;6.576;2023-12-28T18:24:40;9.60;99.90
42907;DHT22;28552;51.146;6.576;2023-12-28T18:27:41;9.50;99.90
42907;DHT22;28552;51.146;6.576;2023-12-28T18:30:41;9.50;99.90
42907;DHT22;28552;51.146;6.576;2023-12-28T18:33:42;9.50;99.90
42907;DHT22;28552;51.146;6.576;2023-12-28T18:36:42;9.60;99.90
42907;DHT22;28552;51.146;6.576;2023-12-28T18:39:43;9.60;99.90
42907;DHT22;28552;51.146;6.576;2023-12-28T18:42:44;9.70;99.90
42907;DHT22;28552;51.146;6.576;2023-12-28T18:45:44;9.70;99.90
42907;DHT22;28552;51.146;6.576;2023-12-28T18:48:46;9.80;99.90
42907;DHT22;28552;51.146;6.576;2023-12-28T18:51:47;9.80;99.90
42907;DHT22;28552;51.146;6.576;2023-12-28T18:54:47;9.90;99.90
42907;DHT22;28552;51.146;6.576;2023-12-28T18:57:48;9.90;99.90
42907;DHT22;28552;51.146;6.576;2023-12-28T19:00:48;9.90;99.90
42907;DHT22;28552;51.146;6.576;2023-12-28T19:03:49;9.90;99.90
42907;DHT22;28552;51.146;6.576;2023-12-28T19:06:49;9.90;99.90
42907;DHT22;28552;51.146;6.576;2023-12-28T19:09:50;9.90;99.90
42907;DHT22;28552;51.146;6.576;2023-12-28T19:12:50;9.90;99.90
42907;DHT22;28552;51.146;6.576;2023-12-28T19:15:51;9.90;99.90
42907;DHT22;28552;51.146;6.576;2023-12-28T19:18:51;10.00;99.90